Latest Coastal Weather Observations for Low Head

IDT60701

Issued at 7:42 am EST Wednesday 19 June 2019 (issued every 10 minutes, with the page automatically refreshed every 10 minutes)

About coastal observations | Map of coastal stations | Coastal observations for TAS | Marine services | Other Formats
Station Details ID: 091293 Name: LOW HEAD Lat: -41.05 Lon: 146.79 Height: 3.0 m
Data from the previous 72 hours. | See also: Recent months at Low Head
Date/Time
EST
Wind Sea
Height
m
Swell Vis
km
Cloud Weather Temp
°C
Press
hPa
Rain since
9am
mm
Dir  Spd
kts
Gust
kts
Height
m
Period
s
Dir
19/07:30am S 6 8 - - - - - - - 6.5 1019.9 5.4
19/07:00am S 9 14 - - - - - - - 7.1 1019.5 5.4
19/06:30am SSW 9 15 - - - - - - - 7.8 1019.0 5.4
19/06:00am WSW 11 15 - - - - - - - 8.2 1018.4 5.4
19/05:30am WSW 7 9 - - - - - - - 8.8 1018.0 5.4
19/05:00am WSW 9 11 - - - - - - - 8.8 1017.9 5.4
19/04:30am WSW 9 11 - - - - - - - 8.6 1017.6 5.4
19/04:00am W 9 10 - - - - - - - 8.7 1017.6 5.4
19/03:30am SSW 6 7 - - - - - - - 8.2 1017.4 5.4
19/03:00am WSW 9 11 - - - - - - - 8.9 1017.0 5.4
19/02:30am WSW 13 15 - - - - - - - 9.1 1016.7 5.4
19/02:00am WSW 17 20 - - - - - - - 9.6 1016.4 5.4
19/01:30am WSW 18 20 - - - - - - - 9.8 1016.1 5.4
19/01:00am WSW 19 21 - - - - - - - 9.7 1015.8 5.4
19/12:30am WSW 17 20 - - - - - - - 9.6 1015.5 5.4
19/12:00am WSW 18 20 - - - - - - - 9.4 1015.4 5.4
 
Date/Time
EST
Wind Sea
Height
m
Swell Vis
km
Cloud Weather Temp
°C
Press
hPa
Rain since
9am
mm
Dir  Spd
kts
Gust
kts
Height
m
Period
s
Dir
18/11:30pm WSW 18 21 - - - - - - - 10.1 1015.1 5.4
18/11:00pm WSW 20 24 - - - - - - - 10.1 1014.8 5.4
18/10:30pm W 20 23 - - - - - - - 9.9 1014.4 5.4
18/10:00pm WSW 21 24 - - - - - - - 9.8 1014.3 5.4
18/09:30pm WSW 19 22 - - - - - - - 9.8 1014.0 5.4
18/09:00pm WSW 21 25 - - - - - - - 9.9 1014.0 5.4
18/08:30pm WSW 22 27 - - - - - - - 10.3 1013.7 5.4
18/08:00pm W 24 28 - - - - - - - 10.6 1013.6 5.4
18/07:30pm W 26 30 - - - - - - - 10.8 1013.4 5.4
18/07:00pm W 25 29 - - - - - - - 10.8 1012.9 5.4
18/06:30pm W 25 29 - - - - - - - 11.1 1012.2 5.4
18/06:00pm WSW 24 27 - - - - - - - 11.1 1011.7 5.4
18/05:30pm W 24 29 - - - - - - - 11.4 1011.4 5.4
18/05:00pm W 23 27 - - - - - - - 11.6 1010.9 5.4
18/04:30pm W 24 27 - - - - - - - 11.7 1010.6 5.4
18/04:00pm W 22 26 - - - - - - - 12.0 1010.3 5.4
18/03:30pm W 14 17 - - - - - - - 11.8 1010.0 5.4
18/03:00pm W 13 15 - - - - - - - 11.8 1009.9 5.4
18/02:30pm W 13 17 - - - - - - - 12.1 1009.6 5.4
18/02:00pm NNW 11 14 - - - - - - - 11.8 1009.6 5.4
18/01:30pm WNW 15 19 - - - - - - - 11.2 1010.0 5.4
18/01:06pm NW 21 30 - - - - - - - 11.5 1010.2 5.4
18/01:05pm NW 20 30 - - - - - - - 11.7 1010.2 5.4
18/01:00pm NNW 19 22 - - - - - - - 12.3 1010.2 5.4
18/12:30pm NW 19 24 - - - - - - - 12.3 1010.6 5.4
18/12:00pm NW 20 23 - - - - - - Recent precip. 12.0 1010.8 5.4
18/11:30am NW 13 16 - - - - - - - 11.3 1011.4 5.4
18/11:00am WNW 13 16 - - - - - - - 10.8 1012.0 4.4
18/10:30am WNW 17 21 - - - - - - - 10.6 1012.0 3.8
18/10:00am WNW 22 27 - - - - - - - 10.9 1012.3 0.8
18/09:34am NNW 28 34 - - - - - - - 12.0 1012.3 0.0
18/09:30am NNW 27 33 - - - - - - - 13.5 1012.0 0.0
18/09:00am NNW 26 31 - - - - - - - 13.6 1012.1 0.4
18/08:30am NNW 25 31 - - - - - - - 13.6 1012.1 0.4
18/08:00am NNW 22 27 - - - - - - - 13.5 1012.3 0.4
18/07:30am N 24 29 - - - - - - - 13.5 1012.5 0.4
18/07:00am N 24 28 - - - - - - - 13.5 1012.6 0.4
18/06:30am N 23 28 - - - - - - - 13.5 1012.9 0.4
18/06:00am N 23 28 - - - - - - - 13.5 1013.1 0.4
18/05:30am N 21 25 - - - - - - - 13.4 1013.3 0.4
18/05:00am N 21 25 - - - - - - - 13.4 1013.4 0.4
18/04:30am N 22 26 - - - - - - - 13.5 1013.7 0.4
18/04:00am N 21 26 - - - - - - - 13.5 1014.0 0.4
18/03:30am N 21 26 - - - - - - - 13.6 1014.4 0.4
18/03:00am N 21 25 - - - - - - - 13.6 1014.8 0.4
18/02:30am N 21 25 - - - - - - - 13.5 1015.3 0.4
18/02:00am N 22 27 - - - - - - - 13.7 1015.5 0.4
18/01:30am N 22 25 - - - - - - - 13.6 1015.8 0.4
18/01:00am N 20 23 - - - - - - - 13.7 1016.1 0.4
18/12:30am N 19 23 - - - - - - - 13.5 1016.5 0.4
18/12:00am N 18 20 - - - - - - - 13.5 1016.8 0.2
 
Date/Time
EST
Wind Sea
Height
m
Swell Vis
km
Cloud Weather Temp
°C
Press
hPa
Rain since
9am
mm
Dir  Spd
kts
Gust
kts
Height
m
Period
s
Dir
17/11:30pm N 17 20 - - - - - - - 13.4 1017.1 0.2
17/11:00pm N 16 19 - - - - - - - 13.3 1017.3 0.2
17/10:30pm N 16 18 - - - - - - - 13.2 1017.6 0.2
17/10:00pm N 15 17 - - - - - - - 13.2 1017.9 0.2
17/09:30pm N 14 16 - - - - - - - 13.2 1018.2 0.2
17/09:00pm N 13 15 - - - - - - - 13.1 1018.2 0.2
17/08:30pm N 13 15 - - - - - - - 13.1 1018.3 0.2
17/08:00pm N 12 14 - - - - - - - 13.1 1018.5 0.2
17/07:30pm NNW 11 14 - - - - - - - 13.1 1018.8 0.2
17/07:00pm NNW 13 14 - - - - - - - 13.2 1018.9 0.2
17/06:30pm NNW 13 15 - - - - - - - 13.2 1018.9 0.2
17/06:00pm NNW 13 16 - - - - - - - 13.2 1018.9 0.2
17/05:30pm NNW 13 15 - - - - - - - 13.3 1019.0 0.2
17/05:00pm NW 13 15 - - - - - - - 13.4 1019.0 0.2
17/04:30pm NW 13 14 - - - - - - - 13.5 1018.9 0.2
17/04:00pm NNW 13 15 - - - - - - - 13.7 1019.0 0.2
17/03:30pm NW 11 13 - - - - - - - 13.8 1019.1 0.2
17/03:00pm NW 4 6 - - - - - - - 14.0 1019.1 0.2
17/02:30pm WNW 4 5 - - - - - - - 13.4 1019.2 0.2
17/02:00pm W 4 5 - - - - - - - 13.5 1019.3 0.2
17/01:30pm CALM 0 0 - - - - - - - 13.7 1019.3 0.2
17/01:00pm WSW 1 5 - - - - - - - 12.9 1019.6 0.2
17/12:30pm CALM 0 0 - - - - - - - 12.7 1019.9 0.2
17/12:00pm S 3 6 - - - - - - - 11.8 1020.3 0.2
17/11:30am SE 4 6 - - - - - - - 11.8 1020.5 0.2
17/11:00am S 6 7 - - - - - - - 11.0 1020.9 0.2
17/10:30am SSE 5 6 - - - - - - - 9.7 1021.2 0.2
17/10:00am SSE 6 7 - - - - - - - 8.9 1021.2 0.2
17/09:30am SSE 7 8 - - - - - - - 8.1 1021.2 0.0
17/09:00am SSE 7 8 - - - - - - - 8.0 1021.2 0.0
17/08:30am SSE 7 8 - - - - - - - 7.6 1021.3 0.0
17/08:00am SSE 7 8 - - - - - - - 7.3 1021.1 0.0
17/07:30am SSE 8 9 - - - - - - - 7.3 1021.2 0.0
17/07:00am SSE 7 9 - - - - - - - 7.3 1021.1 0.0
17/06:30am SSE 7 9 - - - - - - - 7.5 1021.1 0.0
17/06:00am SSE 8 9 - - - - - - - 7.5 1020.9 0.0
17/05:30am SSE 7 8 - - - - - - - 7.3 1020.8 0.0
17/05:00am SSE 8 11 - - - - - - - 7.4 1020.7 0.0
17/04:30am SSE 9 11 - - - - - - - 7.9 1020.8 0.0
17/04:00am SSE 8 9 - - - - - - - 7.6 1020.7 0.0
17/03:30am SSE 5 8 - - - - - - - 8.0 1020.9 0.0
17/03:00am SE 7 8 - - - - - - - 7.7 1021.0 0.0
17/02:30am SSE 9 10 - - - - - - - 7.3 1021.3 0.0
17/02:00am SSE 8 9 - - - - - - - 7.5 1021.4 0.0
17/01:30am SSE 9 11 - - - - - - - 7.3 1021.3 0.0
17/01:00am SSE 10 11 - - - - - - - 7.6 1021.5 0.0
17/12:30am SSE 8 9 - - - - - - - 7.6 1021.6 0.0
17/12:00am SSE 8 9 - - - - - - - 7.7 1021.8 0.0
 
Date/Time
EST
Wind Sea
Height
m
Swell Vis
km
Cloud Weather Temp
°C
Press
hPa
Rain since
9am
mm
Dir  Spd
kts
Gust
kts
Height
m
Period
s
Dir
16/11:30pm SSE 8 9 - - - - - - - 7.5 1022.0 0.0
16/11:00pm SSE 8 9 - - - - - - - 7.3 1022.2 0.0
16/10:30pm SSE 8 10 - - - - - - - 6.7 1022.1 0.0
16/10:00pm SSE 8 8 - - - - - - - 7.4 1022.2 0.0
16/09:30pm SSE 9 9 - - - - - - - 7.5 1021.9 0.0
16/09:00pm SSE 7 9 - - - - - - - 7.9 1021.8 0.0
16/08:30pm SSE 7 8 - - - - - - - 8.3 1021.8 0.0
16/08:00pm SSE 7 8 - - - - - - - 8.4 1021.7 0.0
16/07:30pm SSE 5 5 - - - - - - - 9.3 1021.6 0.0
16/07:00pm SE 6 6 - - - - - - - 9.8 1021.4 0.0
16/06:30pm S 1 5 - - - - - - - 10.2 1021.3 0.0
16/06:00pm W 4 5 - - - - - - - 11.4 1021.1 0.0
16/05:30pm WNW 4 5 - - - - - - - 11.3 1021.0 0.0
16/05:00pm NW 5 6 - - - - - - - 11.6 1020.9 0.0
16/04:30pm NW 6 7 - - - - - - - 12.2 1020.8 0.0
16/04:00pm NNW 6 8 - - - - - - - 12.6 1020.7 0.0
16/03:30pm N 6 8 - - - - - - - 12.6 1020.7 0.0
16/03:00pm N 5 6 - - - - - - - 12.4 1020.8 0.0
16/02:30pm N 4 5 - - - - - - - 13.1 1020.8 0.0
16/02:00pm NNW 4 4 - - - - - - - 13.1 1020.8 0.0
16/01:30pm NW 2 4 - - - - - - - 13.7 1021.0 0.0
16/01:00pm SSW 2 4 - - - - - - - 12.3 1021.0 0.0
16/12:30pm S 5 6 - - - - - - - 11.3 1021.4 0.0
16/12:00pm S 6 7 - - - - - - - 10.3 1021.7 0.0
16/11:30am S 7 8 - - - - - - - 10.0 1022.0 0.0
16/11:00am S 9 11 - - - - - - - 9.3 1022.3 0.0
16/10:30am S 9 11 - - - - - - - 8.8 1022.5 0.0
16/10:00am SSE 10 11 - - - - - - - 8.4 1022.3 0.0
16/09:30am SSE 10 14 - - - - - - - 7.2 1022.2 0.0
16/09:00am SSE 13 16 - - - - - - - 7.0 1022.2 0.0
16/08:30am SSE 12 15 - - - - - - - 6.9 1022.0 0.0
16/08:00am SSE 11 14 - - - - - - - 6.2 1021.8 0.0

Other formats

Comma delimited format used in spreadsheet applications
http://www.bom.gov.au/fwo/IDT60701/IDT60701.95964.axf

JavaScript Object Notation format (JSON) in row-major order
http://www.bom.gov.au/fwo/IDT60701/IDT60701.95964.json

Data quality

Most of these data are generated automatically and are frequently updated. Quality checks on data are not normally performed. It is possible for incorrect values to appear. Refer to information at About Latest Weather Observations and please check the disclaimer before using these data.